Time;durP1;ratioP1;P1;durP2;ratioP2;P2;SDS_P1;SDS_P2;PMS_P1;PMS_P2;Temp;Humidity;BMP_temperature;BMP_pressure;BME280_temperature;BME280_humidity;BME280_pressure;Samples;Min_cycle;Max_cycle;Signal;HPM_P1;HPM_P2
2023/05/14 00:00:37;;;;;;;2.00;1.90;;;23.30;63.30;;;;;;5066650;28;20485;-72
2023/05/14 00:03:05;;;;;;;2.20;2.10;;;23.30;63.30;;;;;;5063950;28;20462;-73
2023/05/14 00:05:34;;;;;;;2.80;2.20;;;23.30;63.30;;;;;;5065801;28;20464;-72
2023/05/14 00:08:03;;;;;;;2.03;1.83;;;23.40;63.30;;;;;;5067521;28;20447;-72
2023/05/14 00:10:31;;;;;;;1.90;1.80;;;23.30;63.30;;;;;;5064878;28;20501;-73
2023/05/14 00:13:01;;;;;;;2.40;2.20;;;23.40;63.30;;;;;;5057565;28;21174;-72
2023/05/14 00:15:30;;;;;;;1.77;1.60;;;23.40;63.30;;;;;;5059428;28;20993;-72
2023/05/14 00:18:01;;;;;;;2.60;2.40;;;23.40;63.30;;;;;;5055209;28;20558;-72
2023/05/14 00:20:29;;;;;;;2.30;2.10;;;23.40;63.20;;;;;;5070774;28;20965;-72
2023/05/14 00:22:57;;;;;;;2.40;2.30;;;23.40;63.20;;;;;;5079386;28;20451;-72
2023/05/14 00:25:26;;;;;;;2.50;2.30;;;23.40;63.20;;;;;;5073679;28;20558;-72
2023/05/14 00:27:54;;;;;;;1.80;1.70;;;23.40;63.20;;;;;;5071657;28;20449;-72
2023/05/14 00:30:23;;;;;;;2.30;2.10;;;23.40;63.20;;;;;;5073315;28;20479;-72
2023/05/14 00:32:53;;;;;;;2.30;2.10;;;23.40;63.20;;;;;;5070837;28;20654;-71
2023/05/14 00:35:22;;;;;;;4.30;1.97;;;23.40;63.10;;;;;;5055587;28;20484;-71
2023/05/14 00:37:50;;;;;;;2.63;2.43;;;23.40;63.10;;;;;;5066164;28;20455;-71
2023/05/14 00:40:19;;;;;;;2.47;2.27;;;23.40;63.10;;;;;;5050858;28;20498;-72
2023/05/14 00:42:48;;;;;;;2.00;1.90;;;23.40;63.10;;;;;;5058479;28;20448;-72
2023/05/14 00:45:16;;;;;;;2.07;1.90;;;23.40;63.10;;;;;;5075017;28;20788;-72
2023/05/14 00:47:46;;;;;;;1.80;1.70;;;23.40;63.10;;;;;;5079118;28;20853;-72
2023/05/14 00:50:16;;;;;;;2.20;2.10;;;23.40;63.10;;;;;;5075008;28;20503;-71
2023/05/14 00:52:44;;;;;;;2.20;2.00;;;23.40;63.10;;;;;;5048564;28;20515;-71
2023/05/14 00:55:15;;;;;;;2.30;1.97;;;23.30;63.10;;;;;;5067832;28;20812;-72
2023/05/14 00:57:44;;;;;;;2.27;2.07;;;23.30;63.10;;;;;;5073012;28;20465;-73
2023/05/14 01:00:13;;;;;;;2.40;2.20;;;23.30;63.10;;;;;;5071744;28;20828;-72
2023/05/14 01:02:41;;;;;;;2.20;2.00;;;23.30;63.10;;;;;;5043538;28;20474;-72
2023/05/14 01:05:11;;;;;;;1.70;1.60;;;23.30;63.10;;;;;;5067706;28;20957;-72
2023/05/14 01:07:49;;;;;;;2.53;1.67;;;23.30;63.10;;;;;;5061177;28;20476;-72
2023/05/14 01:10:23;;;;;;;2.40;2.23;;;23.30;63.10;;;;;;5054620;28;20581;-72
2023/05/14 01:13:04;;;;;;;1.93;1.83;;;23.30;63.20;;;;;;5046904;28;20537;-72
2023/05/14 01:15:34;;;;;;;2.93;2.10;;;23.30;63.30;;;;;;5072303;28;20463;-72
2023/05/14 01:18:06;;;;;;;2.50;2.17;;;23.30;63.30;;;;;;5072193;28;20442;-72
2023/05/14 01:20:36;;;;;;;1.83;1.73;;;23.30;63.30;;;;;;5083474;28;20469;-72
2023/05/14 01:23:05;;;;;;;2.10;1.90;;;23.30;63.30;;;;;;5055035;28;20464;-71
2023/05/14 01:25:34;;;;;;;2.00;1.80;;;23.30;63.30;;;;;;5052236;28;20498;-72
2023/05/14 01:28:10;;;;;;;1.80;1.70;;;23.30;63.30;;;;;;5061997;28;20959;-71
2023/05/14 01:30:45;;;;;;;1.80;1.70;;;23.30;63.30;;;;;;5056114;28;20478;-72
2023/05/14 01:33:15;;;;;;;1.60;1.50;;;23.30;63.30;;;;;;5076203;28;20748;-71
2023/05/14 01:35:45;;;;;;;2.00;1.90;;;23.30;63.30;;;;;;5076570;28;20577;-71
2023/05/14 01:38:18;;;;;;;1.90;1.80;;;23.30;63.30;;;;;;5053904;28;20818;-71
2023/05/14 01:40:48;;;;;;;2.03;1.83;;;23.30;63.30;;;;;;5063107;28;20519;-71
2023/05/14 01:43:17;;;;;;;1.50;1.40;;;23.30;63.20;;;;;;5071971;28;20937;-71
2023/05/14 01:45:46;;;;;;;3.70;2.37;;;23.30;63.20;;;;;;5048857;28;20940;-71
2023/05/14 01:48:15;;;;;;;1.50;1.40;;;23.30;63.20;;;;;;5071946;28;20450;-71
2023/05/14 01:50:43;;;;;;;2.10;2.00;;;23.30;63.20;;;;;;5070902;28;20478;-71
2023/05/14 01:53:12;;;;;;;2.10;2.00;;;23.30;63.20;;;;;;5069263;28;20482;-72
2023/05/14 01:55:41;;;;;;;1.87;1.77;;;23.30;63.20;;;;;;5072248;28;20442;-71
2023/05/14 01:58:09;;;;;;;1.77;1.67;;;23.30;63.20;;;;;;5053303;28;20467;-72
2023/05/14 02:00:38;;;;;;;2.13;1.97;;;23.30;63.20;;;;;;5053316;28;20512;-71
2023/05/14 02:03:06;;;;;;;2.13;2.03;;;23.30;63.20;;;;;;5068947;28;20554;-71
2023/05/14 02:05:34;;;;;;;2.30;2.10;;;23.30;63.10;;;;;;5060882;28;20546;-71
2023/05/14 02:08:02;;;;;;;2.33;2.13;;;23.30;63.10;;;;;;5069889;28;20595;-71
2023/05/14 02:10:30;;;;;;;2.10;2.00;;;23.30;63.10;;;;;;5052604;28;20592;-72
2023/05/14 02:13:00;;;;;;;2.27;2.17;;;23.30;63.10;;;;;;5069723;28;20450;-72
2023/05/14 02:15:28;;;;;;;2.43;2.23;;;23.30;63.10;;;;;;5041075;28;20491;-72
2023/05/14 02:17:56;;;;;;;1.90;1.80;;;23.30;63.10;;;;;;5071961;28;20468;-72
2023/05/14 02:20:24;;;;;;;2.00;1.90;;;23.30;63.10;;;;;;5071368;28;20461;-72
2023/05/14 02:22:53;;;;;;;2.27;2.10;;;23.30;63.10;;;;;;5061743;28;20449;-72
2023/05/14 02:25:21;;;;;;;2.00;1.80;;;23.30;63.10;;;;;;5071092;28;20462;-72
2023/05/14 02:27:49;;;;;;;1.83;1.73;;;23.30;63.10;;;;;;5061130;28;20467;-72
2023/05/14 02:30:19;;;;;;;2.20;2.10;;;23.30;63.10;;;;;;5066089;28;20481;-72
2023/05/14 02:32:47;;;;;;;2.30;2.20;;;23.30;63.10;;;;;;5052541;28;20466;-72
2023/05/14 02:35:15;;;;;;;2.17;2.07;;;23.30;63.10;;;;;;5065888;28;20494;-72
2023/05/14 02:37:44;;;;;;;2.20;2.00;;;23.30;63.10;;;;;;5062255;28;21288;-71
2023/05/14 02:40:12;;;;;;;1.77;1.67;;;23.30;63.10;;;;;;5072012;28;20459;-72
2023/05/14 02:42:40;;;;;;;2.07;1.97;;;23.20;63.10;;;;;;5060854;28;20486;-72
2023/05/14 02:45:09;;;;;;;2.00;1.90;;;23.30;63.10;;;;;;5051998;28;20500;-72
2023/05/14 02:47:38;;;;;;;1.80;1.70;;;23.30;63.10;;;;;;5071202;28;20958;-72
2023/05/14 02:50:08;;;;;;;2.27;1.97;;;23.20;63.10;;;;;;5071031;28;20462;-72
2023/05/14 02:52:36;;;;;;;2.03;1.93;;;23.20;63.10;;;;;;5071276;28;20457;-72
2023/05/14 02:55:05;;;;;;;2.23;2.07;;;23.20;63.10;;;;;;5070966;28;20458;-72
2023/05/14 02:57:33;;;;;;;2.13;1.93;;;23.20;63.10;;;;;;5071117;28;20464;-72
2023/05/14 03:00:02;;;;;;;2.47;2.37;;;23.20;63.10;;;;;;5070374;28;20490;-71
2023/05/14 03:02:30;;;;;;;1.90;1.80;;;23.20;63.10;;;;;;5053349;28;20550;-71
2023/05/14 03:05:00;;;;;;;1.70;1.60;;;23.20;63.10;;;;;;5044336;28;20466;-72
2023/05/14 03:07:29;;;;;;;1.93;1.83;;;23.20;63.10;;;;;;5051347;28;20469;-72
2023/05/14 03:09:59;;;;;;;1.90;1.80;;;23.20;63.10;;;;;;5071027;28;20455;-72
2023/05/14 03:12:27;;;;;;;2.93;1.60;;;23.20;63.10;;;;;;5052626;28;20497;-71
2023/05/14 03:14:55;;;;;;;2.53;2.30;;;23.20;63.10;;;;;;5070550;28;20461;-72
2023/05/14 03:17:23;;;;;;;2.20;2.00;;;23.20;63.10;;;;;;5052991;28;20969;-72
2023/05/14 03:19:51;;;;;;;2.37;2.17;;;23.20;63.10;;;;;;5070643;28;20528;-72
2023/05/14 03:22:21;;;;;;;1.80;1.70;;;23.20;63.10;;;;;;5071021;28;20493;-72
2023/05/14 03:24:49;;;;;;;2.00;1.90;;;23.20;63.10;;;;;;5069615;28;20458;-71
2023/05/14 03:27:17;;;;;;;1.90;1.80;;;23.10;63.10;;;;;;5055409;28;20475;-72
2023/05/14 03:29:45;;;;;;;1.87;1.77;;;23.20;63.10;;;;;;5069253;28;20596;-71
2023/05/14 03:32:14;;;;;;;1.80;1.70;;;23.20;63.10;;;;;;5070659;28;20517;-71
2023/05/14 03:34:43;;;;;;;2.13;2.03;;;23.10;63.10;;;;;;5069914;28;20813;-71
2023/05/14 03:37:12;;;;;;;1.97;1.87;;;23.10;63.10;;;;;;5048121;28;20515;-72
2023/05/14 03:39:42;;;;;;;1.97;1.87;;;23.10;63.10;;;;;;5078741;28;20459;-72
2023/05/14 03:42:10;;;;;;;2.33;2.23;;;23.20;63.10;;;;;;5071695;28;20459;-71
2023/05/14 03:44:38;;;;;;;1.90;1.80;;;23.10;63.10;;;;;;5051828;28;20856;-71
2023/05/14 03:47:06;;;;;;;1.70;1.60;;;23.10;63.10;;;;;;5066239;28;20461;-71
2023/05/14 03:49:35;;;;;;;2.20;2.00;;;23.10;63.10;;;;;;5086573;28;20454;-71
2023/05/14 03:52:03;;;;;;;2.30;2.10;;;23.10;63.10;;;;;;5052396;28;20544;-70
2023/05/14 03:54:31;;;;;;;1.83;1.73;;;23.20;63.10;;;;;;5053943;28;20463;-70
2023/05/14 03:57:01;;;;;;;2.00;1.90;;;23.20;63.10;;;;;;5056809;28;20868;-70
2023/05/14 03:59:30;;;;;;;2.53;2.37;;;23.20;63.20;;;;;;5078272;28;21505;-70
2023/05/14 04:01:58;;;;;;;1.87;1.77;;;23.20;63.20;;;;;;5082538;28;20552;-70
2023/05/14 04:04:26;;;;;;;1.80;1.70;;;23.20;63.20;;;;;;5067167;28;20459;-70
2023/05/14 04:06:55;;;;;;;2.00;1.90;;;23.30;63.00;;;;;;5065737;28;20470;-70
2023/05/14 04:09:23;;;;;;;1.97;1.87;;;23.30;63.00;;;;;;5078695;28;20507;-70
2023/05/14 04:11:51;;;;;;;2.20;2.00;;;23.40;62.90;;;;;;5074348;28;20459;-70
2023/05/14 04:14:21;;;;;;;2.03;1.93;;;23.40;62.80;;;;;;5055340;28;20463;-70
2023/05/14 04:16:49;;;;;;;1.77;1.67;;;23.50;62.70;;;;;;5072224;28;20532;-71
2023/05/14 04:19:17;;;;;;;2.00;1.90;;;23.50;62.60;;;;;;5071082;28;20557;-71
2023/05/14 04:21:46;;;;;;;1.80;1.70;;;23.60;62.50;;;;;;5073411;28;20441;-71
2023/05/14 04:24:14;;;;;;;2.00;1.90;;;23.60;62.50;;;;;;5072725;28;20500;-71
2023/05/14 04:26:42;;;;;;;1.70;1.60;;;23.60;62.40;;;;;;5073785;28;20477;-71
2023/05/14 04:29:10;;;;;;;1.60;1.50;;;23.60;62.40;;;;;;5056571;28;20494;-72
2023/05/14 04:31:40;;;;;;;2.20;2.10;;;23.60;62.40;;;;;;5070187;28;20517;-72
2023/05/14 04:34:09;;;;;;;2.53;2.33;;;23.60;62.40;;;;;;5070984;28;20459;-72
2023/05/14 04:36:37;;;;;;;1.87;1.77;;;23.60;62.40;;;;;;5073003;28;20568;-71
2023/05/14 04:39:05;;;;;;;1.67;1.43;;;23.60;62.30;;;;;;5073719;28;20489;-71
2023/05/14 04:41:33;;;;;;;2.97;2.73;;;23.60;62.30;;;;;;5067382;28;20559;-72
2023/05/14 04:44:03;;;;;;;1.70;1.60;;;23.50;62.30;;;;;;5069862;28;20446;-72
2023/05/14 04:46:32;;;;;;;2.30;2.10;;;23.50;62.30;;;;;;5084800;28;20455;-72
2023/05/14 04:49:01;;;;;;;1.80;1.70;;;23.50;62.40;;;;;;5077582;28;20949;-72
2023/05/14 04:51:30;;;;;;;1.80;1.70;;;23.50;62.40;;;;;;5054237;28;20478;-72
2023/05/14 04:53:58;;;;;;;2.10;2.00;;;23.50;62.40;;;;;;5068691;28;21909;-71
2023/05/14 04:56:26;;;;;;;1.70;1.60;;;23.50;62.40;;;;;;5074043;28;20466;-71
2023/05/14 04:58:55;;;;;;;2.20;2.10;;;23.50;62.40;;;;;;5051919;28;20506;-72
2023/05/14 05:01:23;;;;;;;2.20;2.00;;;23.50;62.40;;;;;;5055203;28;20972;-71
2023/05/14 05:03:51;;;;;;;2.37;2.27;;;23.40;62.50;;;;;;5060480;28;20449;-71
2023/05/14 05:06:21;;;;;;;1.43;1.33;;;23.40;62.50;;;;;;5070332;28;20463;-71
2023/05/14 05:08:49;;;;;;;1.90;1.80;;;23.40;62.50;;;;;;5072324;28;20450;-71
2023/05/14 05:11:17;;;;;;;2.00;1.90;;;23.40;62.50;;;;;;5070658;28;20464;-71
2023/05/14 05:13:45;;;;;;;2.00;1.90;;;23.40;62.50;;;;;;5072245;28;20745;-71
2023/05/14 05:16:14;;;;;;;1.90;1.80;;;23.40;62.50;;;;;;5069104;28;20563;-71
2023/05/14 05:18:43;;;;;;;1.90;1.80;;;23.40;62.50;;;;;;5069245;28;20987;-71
2023/05/14 05:21:11;;;;;;;2.20;2.10;;;23.40;62.50;;;;;;5072389;28;20461;-72
2023/05/14 05:23:41;;;;;;;2.10;2.00;;;23.30;62.50;;;;;;5072719;28;20435;-71
2023/05/14 05:26:09;;;;;;;2.20;2.10;;;23.30;62.50;;;;;;5072417;28;21025;-71
2023/05/14 05:28:37;;;;;;;2.07;1.97;;;23.30;62.50;;;;;;5065303;28;21303;-71
2023/05/14 05:31:05;;;;;;;1.90;1.80;;;23.30;62.50;;;;;;5062999;28;20447;-72
2023/05/14 05:33:34;;;;;;;2.57;2.37;;;23.30;62.50;;;;;;5070252;28;20467;-71
2023/05/14 05:36:02;;;;;;;2.07;1.97;;;23.30;62.50;;;;;;5072742;28;20481;-71
2023/05/14 05:38:31;;;;;;;1.83;1.73;;;23.30;62.50;;;;;;5070079;28;21064;-72
2023/05/14 05:41:00;;;;;;;2.30;2.20;;;23.30;62.50;;;;;;5071665;28;20485;-72
2023/05/14 05:43:28;;;;;;;2.00;1.90;;;23.30;62.50;;;;;;5072243;28;20439;-72
2023/05/14 05:45:56;;;;;;;2.00;1.90;;;23.30;62.50;;;;;;5066003;28;20470;-72
2023/05/14 05:48:25;;;;;;;2.10;2.00;;;23.30;62.50;;;;;;5060606;28;20538;-72
2023/05/14 05:50:53;;;;;;;2.27;2.07;;;23.30;62.50;;;;;;5070426;28;21067;-72
2023/05/14 05:53:21;;;;;;;1.90;1.80;;;23.30;62.50;;;;;;5080936;28;20561;-72
2023/05/14 05:55:50;;;;;;;2.07;1.97;;;23.30;62.50;;;;;;5071476;28;20489;-72
2023/05/14 05:58:20;;;;;;;2.30;2.20;;;23.40;62.50;;;;;;5072167;28;20504;-71
2023/05/14 06:00:48;;;;;;;2.13;2.03;;;23.40;62.50;;;;;;5071494;28;20489;-72
2023/05/14 06:03:16;;;;;;;1.77;1.67;;;23.40;62.50;;;;;;5071536;28;20454;-71
2023/05/14 06:05:45;;;;;;;2.27;2.13;;;23.40;62.40;;;;;;5066334;28;20464;-72
2023/05/14 06:08:13;;;;;;;1.47;1.37;;;23.40;62.40;;;;;;5071574;28;20439;-71
2023/05/14 06:10:42;;;;;;;1.97;1.87;;;23.40;62.40;;;;;;5066439;28;20543;-71
2023/05/14 06:13:10;;;;;;;2.17;2.03;;;23.40;62.30;;;;;;5071568;28;20466;-71
2023/05/14 06:15:39;;;;;;;2.10;2.00;;;23.50;62.30;;;;;;5069541;28;20467;-72
2023/05/14 06:18:08;;;;;;;1.97;1.87;;;23.50;62.20;;;;;;5070912;28;20530;-71
2023/05/14 06:20:36;;;;;;;2.53;2.33;;;23.50;62.20;;;;;;5072184;28;20423;-71
2023/05/14 06:23:04;;;;;;;2.07;1.97;;;23.50;62.20;;;;;;5072097;28;20439;-71
2023/05/14 06:25:32;;;;;;;2.00;1.90;;;23.50;62.20;;;;;;5071817;28;20451;-71
2023/05/14 06:28:01;;;;;;;2.00;1.90;;;23.50;62.20;;;;;;5066360;28;20468;-72
2023/05/14 06:30:29;;;;;;;2.13;2.00;;;23.50;62.20;;;;;;5071033;28;20433;-72
2023/05/14 06:32:58;;;;;;;2.50;2.30;;;23.50;62.20;;;;;;5071205;28;20553;-72
2023/05/14 06:35:27;;;;;;;2.60;2.50;;;23.50;62.10;;;;;;5072023;28;20943;-71
2023/05/14 06:37:55;;;;;;;2.30;2.20;;;23.50;62.20;;;;;;5080793;28;20462;-72
2023/05/14 06:40:23;;;;;;;2.87;2.23;;;23.50;62.10;;;;;;5050190;28;20493;-71
2023/05/14 06:42:52;;;;;;;2.73;2.53;;;23.50;62.20;;;;;;5063812;28;20552;-71
2023/05/14 06:45:20;;;;;;;1.70;1.60;;;23.50;62.10;;;;;;5077475;28;20488;-71
2023/05/14 06:47:48;;;;;;;2.17;2.07;;;23.50;62.20;;;;;;5055250;28;20560;-72
2023/05/14 06:50:18;;;;;;;1.93;1.83;;;23.40;62.10;;;;;;5077994;28;20453;-71
2023/05/14 06:52:46;;;;;;;1.90;1.80;;;23.50;62.10;;;;;;5075522;28;20519;-72
2023/05/14 06:55:14;;;;;;;1.80;1.70;;;23.40;62.10;;;;;;5074931;28;20549;-71
2023/05/14 06:57:43;;;;;;;1.83;1.73;;;23.40;62.10;;;;;;5051892;28;20898;-71
2023/05/14 07:00:13;;;;;;;2.30;2.20;;;23.50;62.10;;;;;;5060906;28;21018;-71
2023/05/14 07:02:41;;;;;;;2.17;2.07;;;23.50;62.10;;;;;;5067084;28;20468;-72
2023/05/14 07:05:10;;;;;;;2.30;2.20;;;23.50;62.10;;;;;;5068974;28;20448;-71
2023/05/14 07:07:40;;;;;;;2.60;2.40;;;23.50;62.10;;;;;;5069414;28;20448;-71
2023/05/14 07:10:08;;;;;;;2.27;2.17;;;23.50;62.10;;;;;;5071905;28;20918;-71
2023/05/14 07:12:36;;;;;;;2.50;2.30;;;23.50;62.10;;;;;;5062099;28;20983;-71
2023/05/14 07:15:06;;;;;;;2.10;2.00;;;23.50;62.10;;;;;;5063449;28;20474;-71
2023/05/14 07:17:34;;;;;;;2.10;2.00;;;23.50;62.10;;;;;;5065740;28;20500;-71
2023/05/14 07:20:02;;;;;;;2.53;2.33;;;23.50;62.10;;;;;;5064949;28;20455;-71
2023/05/14 07:22:31;;;;;;;2.27;2.17;;;23.50;62.00;;;;;;5071633;28;20542;-71
2023/05/14 07:25:01;;;;;;;2.00;1.90;;;23.50;62.00;;;;;;5064308;28;20473;-71
2023/05/14 07:27:29;;;;;;;2.07;1.97;;;23.50;62.00;;;;;;5063697;28;20470;-71
2023/05/14 07:29:57;;;;;;;1.83;1.73;;;23.60;62.00;;;;;;5065716;28;20539;-71
2023/05/14 07:32:26;;;;;;;2.20;2.10;;;23.60;61.90;;;;;;5068122;28;20803;-71
2023/05/14 07:34:54;;;;;;;1.93;1.83;;;23.60;61.90;;;;;;5066622;28;20471;-71
2023/05/14 07:37:24;;;;;;;1.97;1.87;;;23.60;61.90;;;;;;5074891;28;20442;-71
2023/05/14 07:39:53;;;;;;;2.27;2.17;;;23.60;61.80;;;;;;5072701;28;20462;-71
2023/05/14 07:42:22;;;;;;;2.10;2.00;;;23.60;61.80;;;;;;5074969;28;20878;-71
2023/05/14 07:45:04;;;;;;;2.20;2.10;;;23.60;61.80;;;;;;5064384;28;20544;-71
2023/05/14 07:47:32;;;;;;;2.40;2.30;;;23.60;61.80;;;;;;5073366;28;20476;-71
2023/05/14 07:50:00;;;;;;;2.17;1.97;;;23.60;61.80;;;;;;5052170;28;20466;-71
2023/05/14 07:52:29;;;;;;;2.43;2.33;;;23.60;61.80;;;;;;5075715;28;20921;-70
2023/05/14 07:54:57;;;;;;;2.13;1.97;;;23.60;61.80;;;;;;5073041;28;20473;-70
2023/05/14 07:57:26;;;;;;;2.00;1.90;;;23.60;61.80;;;;;;5081512;28;20446;-71
2023/05/14 07:59:56;;;;;;;1.93;1.83;;;23.60;61.80;;;;;;5069804;28;20517;-71
2023/05/14 08:02:25;;;;;;;2.10;2.00;;;23.60;61.90;;;;;;5063561;28;20467;-71
2023/05/14 08:04:54;;;;;;;1.80;1.70;;;23.60;61.90;;;;;;5069438;28;20439;-71
2023/05/14 08:07:22;;;;;;;1.80;1.70;;;23.60;61.90;;;;;;5056342;28;20873;-71
2023/05/14 08:09:50;;;;;;;2.00;1.90;;;23.50;61.90;;;;;;5073753;28;20436;-71
2023/05/14 08:12:18;;;;;;;1.90;1.80;;;23.50;61.90;;;;;;5066476;28;20495;-73
2023/05/14 08:14:48;;;;;;;2.40;2.20;;;23.50;61.90;;;;;;5063188;28;20511;-72
2023/05/14 08:17:16;;;;;;;2.50;2.30;;;23.50;61.90;;;;;;5077481;28;20485;-72
2023/05/14 08:19:45;;;;;;;2.87;2.57;;;23.60;61.90;;;;;;5083937;28;20459;-71
2023/05/14 08:22:13;;;;;;;2.70;2.50;;;23.50;61.80;;;;;;5074215;28;20502;-71
2023/05/14 08:24:42;;;;;;;3.10;2.90;;;23.50;61.80;;;;;;5047711;28;20483;-71
2023/05/14 08:27:10;;;;;;;3.23;3.03;;;23.50;61.80;;;;;;5063175;28;20510;-71
2023/05/14 08:29:38;;;;;;;2.87;2.67;;;23.50;61.90;;;;;;5062523;28;20470;-72
2023/05/14 08:32:08;;;;;;;6.07;3.60;;;23.50;62.00;;;;;;5069718;28;20541;-72
2023/05/14 08:34:50;;;;;;;3.60;3.30;;;23.50;62.10;;;;;;5067503;28;20481;-70
2023/05/14 08:37:19;;;;;;;2.87;2.67;;;23.50;62.10;;;;;;5063161;28;20463;-71
2023/05/14 08:39:47;;;;;;;3.27;2.60;;;23.50;62.20;;;;;;5058459;28;20932;-72
2023/05/14 08:42:20;;;;;;;3.17;2.97;;;23.50;62.20;;;;;;5055778;28;20478;-72
2023/05/14 08:44:49;;;;;;;3.00;2.80;;;23.50;62.30;;;;;;5061090;28;20456;-72
2023/05/14 08:47:21;;;;;;;3.40;3.10;;;23.50;62.30;;;;;;5063883;28;20479;-72
2023/05/14 08:50:03;;;;;;;3.20;2.90;;;23.50;62.30;;;;;;5067963;28;20466;-70
2023/05/14 08:52:32;;;;;;;3.33;3.00;;;23.50;62.40;;;;;;5068836;28;20514;-72
2023/05/14 08:55:05;;;;;;;3.07;2.83;;;23.50;62.40;;;;;;5066853;28;20580;-72
2023/05/14 08:57:34;;;;;;;2.97;2.77;;;23.50;62.40;;;;;;5066000;28;20807;-71
2023/05/14 09:00:07;;;;;;;3.17;2.87;;;23.50;62.40;;;;;;5066544;28;20456;-72
2023/05/14 09:02:37;;;;;;;3.13;2.93;;;23.50;62.30;;;;;;5071443;28;20437;-72
2023/05/14 09:05:08;;;;;;;3.13;2.93;;;23.50;62.30;;;;;;5066251;28;20467;-71
2023/05/14 09:07:36;;;;;;;3.40;3.10;;;23.50;62.30;;;;;;5055808;28;20542;-71
2023/05/14 09:10:05;;;;;;;3.07;2.87;;;23.50;62.30;;;;;;5064535;28;20803;-71
2023/05/14 09:12:33;;;;;;;3.07;2.87;;;23.50;62.20;;;;;;5052487;28;20447;-71
2023/05/14 09:15:02;;;;;;;3.80;3.23;;;23.50;62.20;;;;;;5058898;28;20476;-71
2023/05/14 09:17:30;;;;;;;3.07;2.87;;;23.50;62.10;;;;;;5052994;28;20456;-71
2023/05/14 09:20:00;;;;;;;6.33;3.70;;;23.50;62.10;;;;;;5066839;28;20516;-71
2023/05/14 09:22:31;;;;;;;3.63;3.40;;;23.50;62.10;;;;;;5067934;28;20485;-72
2023/05/14 09:25:04;;;;;;;3.30;3.07;;;23.50;62.10;;;;;;5065711;28;20458;-72
2023/05/14 09:27:33;;;;;;;4.67;3.43;;;23.50;62.10;;;;;;5059834;28;20497;-71
2023/05/14 09:30:07;;;;;;;3.53;3.23;;;23.50;62.10;;;;;;5065945;28;20491;-73
2023/05/14 09:32:39;;;;;;;3.20;3.00;;;23.50;62.10;;;;;;5069837;28;20448;-73
2023/05/14 09:35:18;;;;;;;3.60;3.30;;;23.50;62.10;;;;;;5064338;28;20508;-72
2023/05/14 09:37:48;;;;;;;3.47;3.27;;;23.50;62.00;;;;;;5073511;28;20460;-73
2023/05/14 09:40:18;;;;;;;3.20;3.00;;;23.50;62.00;;;;;;5072311;28;20455;-72
2023/05/14 09:42:48;;;;;;;3.23;3.03;;;23.60;61.90;;;;;;5068931;28;20922;-72
2023/05/14 09:45:17;;;;;;;4.03;3.77;;;23.60;61.90;;;;;;5068440;28;20460;-72
2023/05/14 09:47:45;;;;;;;3.87;3.57;;;23.70;61.80;;;;;;5057455;28;20580;-71
2023/05/14 09:50:14;;;;;;;3.70;3.40;;;23.70;61.80;;;;;;5073806;28;20922;-72
2023/05/14 09:52:43;;;;;;;3.90;3.60;;;23.70;61.80;;;;;;5041312;28;20459;-71
2023/05/14 09:55:11;;;;;;;3.40;3.20;;;23.70;61.80;;;;;;5058236;28;20473;-72
2023/05/14 09:57:40;;;;;;;3.10;2.90;;;23.70;61.80;;;;;;5061475;28;20559;-72
2023/05/14 10:00:09;;;;;;;3.37;3.07;;;23.80;61.80;;;;;;5067215;28;20595;-72
2023/05/14 10:02:39;;;;;;;3.13;2.93;;;23.80;61.80;;;;;;5056181;28;20458;-69
2023/05/14 10:05:09;;;;;;;2.97;2.77;;;23.80;61.90;;;;;;5067132;28;20465;-69
2023/05/14 10:07:41;;;;;;;3.33;3.10;;;23.80;61.90;;;;;;5066113;28;20444;-70
2023/05/14 10:10:15;;;;;;;3.30;3.10;;;23.80;61.90;;;;;;5074613;28;20926;-69
2023/05/14 10:12:47;;;;;;;3.20;3.00;;;23.80;62.00;;;;;;5059315;28;20473;-69
2023/05/14 10:15:21;;;;;;;3.43;3.23;;;23.80;62.00;;;;;;5070972;28;20467;-69
2023/05/14 10:17:52;;;;;;;2.90;2.70;;;23.80;62.10;;;;;;5071017;28;20552;-69
2023/05/14 10:20:22;;;;;;;3.13;2.93;;;23.80;62.20;;;;;;5068659;28;20467;-69
2023/05/14 10:22:53;;;;;;;3.50;3.20;;;23.80;62.20;;;;;;5073778;28;20460;-69
2023/05/14 10:25:22;;;;;;;3.10;2.90;;;23.80;62.20;;;;;;5067727;28;20549;-69
2023/05/14 10:27:54;;;;;;;3.97;3.00;;;23.80;62.20;;;;;;5065636;28;20454;-69
2023/05/14 10:30:23;;;;;;;3.10;2.90;;;23.90;62.20;;;;;;5068383;28;20459;-69
2023/05/14 10:33:07;;;;;;;3.40;3.00;;;23.90;62.20;;;;;;5066916;28;20464;-69
2023/05/14 10:36:00;;;;;;;3.30;3.10;;;24.00;62.20;;;;;;5066434;28;20565;-69
2023/05/14 10:38:32;;;;;;;2.90;2.77;;;24.00;62.10;;;;;;5065873;28;21049;-68
2023/05/14 10:41:02;;;;;;;2.97;2.77;;;24.00;62.10;;;;;;5058440;28;20455;-69
2023/05/14 10:43:36;;;;;;;3.07;2.87;;;24.00;62.10;;;;;;5064742;28;20985;-69
2023/05/14 10:46:06;;;;;;;4.07;3.30;;;24.00;62.10;;;;;;5070113;28;20454;-69
2023/05/14 10:48:36;;;;;;;4.00;3.10;;;24.00;62.00;;;;;;5054219;28;20824;-69
2023/05/14 10:51:07;;;;;;;3.70;3.40;;;24.00;61.90;;;;;;5060602;28;20470;-68
2023/05/14 10:53:39;;;;;;;4.63;2.80;;;24.00;61.90;;;;;;5069801;28;20463;-67
2023/05/14 10:56:09;;;;;;;3.23;3.03;;;24.00;61.90;;;;;;5069569;28;20575;-67
2023/05/14 10:58:40;;;;;;;2.70;2.50;;;24.00;61.90;;;;;;5064295;28;20484;-67
2023/05/14 11:01:10;;;;;;;3.40;3.20;;;24.00;62.00;;;;;;5064590;28;20549;-68
2023/05/14 11:03:41;;;;;;;3.53;3.23;;;24.00;62.10;;;;;;5059990;28;20552;-67
2023/05/14 11:06:12;;;;;;;4.03;3.37;;;24.00;62.10;;;;;;5047452;28;20564;-67
2023/05/14 11:08:42;;;;;;;3.50;3.20;;;24.00;62.10;;;;;;5072864;28;20509;-67
2023/05/14 11:11:11;;;;;;;3.30;3.00;;;24.00;62.10;;;;;;5063623;28;20482;-67
2023/05/14 11:13:39;;;;;;;3.53;3.23;;;24.00;62.10;;;;;;5064511;28;20477;-68
2023/05/14 11:16:08;;;;;;;3.87;3.57;;;24.00;62.00;;;;;;5073899;28;20464;-68
2023/05/14 11:18:55;;;;;;;3.50;3.30;;;24.10;62.00;;;;;;5074909;28;20447;-68
2023/05/14 11:21:24;;;;;;;3.20;3.00;;;24.10;61.90;;;;;;5056581;28;20480;-68
2023/05/14 11:23:55;;;;;;;2.83;2.67;;;24.10;61.90;;;;;;5073361;28;20461;-68
2023/05/14 11:26:23;;;;;;;3.53;3.33;;;24.10;61.80;;;;;;5068077;28;20499;-68
2023/05/14 11:28:52;;;;;;;3.33;3.10;;;24.20;61.80;;;;;;5070132;28;20459;-67
2023/05/14 11:31:22;;;;;;;3.53;3.30;;;24.20;61.70;;;;;;5063078;28;20457;-68
2023/05/14 11:33:53;;;;;;;2.97;2.53;;;24.20;61.70;;;;;;5070129;28;20453;-68
2023/05/14 11:36:22;;;;;;;2.47;2.37;;;24.20;61.60;;;;;;5065328;28;20519;-67
2023/05/14 11:38:51;;;;;;;2.83;2.50;;;24.20;61.50;;;;;;5067195;28;20454;-67
2023/05/14 11:41:21;;;;;;;3.97;3.17;;;24.20;61.60;;;;;;5042818;28;21122;-67
2023/05/14 11:43:50;;;;;;;2.87;2.67;;;24.30;61.50;;;;;;5046114;28;20862;-68
2023/05/14 11:46:20;;;;;;;2.90;2.70;;;24.30;61.50;;;;;;5048370;28;20496;-67
2023/05/14 11:48:49;;;;;;;3.57;3.27;;;24.30;61.60;;;;;;5065205;28;20463;-67
2023/05/14 11:51:18;;;;;;;2.80;2.60;;;24.30;61.70;;;;;;5072204;28;20475;-67
2023/05/14 11:53:47;;;;;;;2.90;2.60;;;24.40;61.70;;;;;;5060916;28;20464;-67
2023/05/14 11:56:16;;;;;;;3.30;3.00;;;24.50;61.50;;;;;;5063471;28;20486;-67
2023/05/14 11:58:55;;;;;;;3.37;3.07;;;24.60;61.50;;;;;;5062789;28;20461;-67
2023/05/14 12:01:24;;;;;;;3.80;3.50;;;24.60;61.90;;;;;;5064205;28;21213;-67
2023/05/14 12:03:52;;;;;;;4.80;3.03;;;24.60;62.20;;;;;;5074144;28;20495;-67
2023/05/14 12:06:21;;;;;;;4.40;3.30;;;24.60;62.00;;;;;;5073277;28;20503;-67
2023/05/14 12:08:49;;;;;;;4.20;3.53;;;24.60;62.10;;;;;;5054387;28;20486;-67
2023/05/14 12:11:22;;;;;;;2.93;2.73;;;24.60;62.10;;;;;;5074311;28;20460;-67
2023/05/14 12:13:53;;;;;;;4.93;2.77;;;24.70;62.70;;;;;;5055087;28;20457;-67
2023/05/14 12:16:22;;;;;;;4.60;3.50;;;24.70;62.40;;;;;;5068005;28;20584;-67
2023/05/14 12:18:50;;;;;;;4.73;3.43;;;24.70;62.50;;;;;;5063184;28;20523;-67
2023/05/14 12:21:19;;;;;;;5.13;3.60;;;24.70;62.90;;;;;;5064172;28;20660;-68
2023/05/14 12:23:47;;;;;;;6.57;3.50;;;24.60;63.50;;;;;;5067861;28;20519;-68
2023/05/14 12:26:16;;;;;;;4.77;2.83;;;24.70;63.20;;;;;;5073357;28;20495;-68
2023/05/14 12:28:48;;;;;;;4.37;3.97;;;24.70;62.80;;;;;;5074697;28;20456;-68
2023/05/14 12:31:18;;;;;;;4.70;2.93;;;24.60;62.60;;;;;;5068689;28;20518;-68
2023/05/14 12:33:46;;;;;;;3.17;2.80;;;24.60;62.60;;;;;;5070004;28;20462;-68
2023/05/14 12:36:14;;;;;;;3.37;3.07;;;24.60;62.20;;;;;;5065558;28;20516;-69
2023/05/14 12:38:50;;;;;;;4.50;3.03;;;24.50;62.40;;;;;;5066077;28;20451;-69
2023/05/14 12:41:18;;;;;;;2.87;2.67;;;24.50;62.70;;;;;;5067876;28;20884;-69
2023/05/14 12:43:48;;;;;;;3.17;2.93;;;24.40;62.70;;;;;;5054570;28;20457;-68
2023/05/14 12:46:18;;;;;;;3.97;3.60;;;24.40;62.90;;;;;;5057122;28;20518;-68
2023/05/14 12:48:46;;;;;;;4.37;3.70;;;24.40;63.60;;;;;;5065331;28;20492;-68
2023/05/14 12:51:15;;;;;;;3.80;3.43;;;24.40;63.40;;;;;;5046169;28;20464;-69
2023/05/14 12:53:44;;;;;;;3.20;2.90;;;24.40;63.20;;;;;;5047133;28;20474;-68
2023/05/14 12:56:13;;;;;;;3.97;3.67;;;24.40;63.10;;;;;;5066228;28;20473;-68
2023/05/14 12:58:42;;;;;;;3.53;2.80;;;24.40;63.00;;;;;;5062452;28;20960;-69